createdAt,value
2018-08-12T00:00:16.461Z,13.50
2018-08-12T00:02:44.700Z,13.40
2018-08-12T00:05:13.148Z,13.40
2018-08-12T00:07:41.402Z,13.30
2018-08-12T00:10:11.115Z,13.30
2018-08-12T00:12:39.705Z,13.30
2018-08-12T00:15:09.980Z,13.20
2018-08-12T00:17:38.232Z,13.20
2018-08-12T00:20:09.408Z,13.10
2018-08-12T00:22:37.643Z,13.00
2018-08-12T00:25:08.250Z,12.90
2018-08-12T00:27:36.523Z,12.90
2018-08-12T00:30:05.868Z,12.80
2018-08-12T00:32:34.104Z,12.70
2018-08-12T00:35:02.315Z,12.60
2018-08-12T00:37:30.536Z,12.50
2018-08-12T00:39:58.743Z,12.40
2018-08-12T00:42:27.000Z,12.30
2018-08-12T00:44:55.191Z,12.30
2018-08-12T00:47:23.539Z,12.20
2018-08-12T00:49:51.737Z,12.20
2018-08-12T00:52:19.958Z,12.10
2018-08-12T00:54:48.275Z,12.10
2018-08-12T00:57:16.506Z,12.00
2018-08-12T00:59:44.713Z,11.90
2018-08-12T01:02:12.958Z,11.90
2018-08-12T01:04:41.263Z,11.90
2018-08-12T01:07:09.500Z,11.90
2018-08-12T01:09:37.770Z,11.80
2018-08-12T01:12:06.082Z,11.80
2018-08-12T01:14:34.339Z,11.70
2018-08-12T01:17:02.547Z,11.70
2018-08-12T01:19:30.769Z,11.70
2018-08-12T01:21:58.974Z,11.80
2018-08-12T01:24:27.207Z,11.80
2018-08-12T01:26:55.422Z,11.80
2018-08-12T01:29:23.671Z,11.70
2018-08-12T01:31:51.884Z,11.70
2018-08-12T01:34:20.144Z,11.60
2018-08-12T01:36:48.347Z,11.60
2018-08-12T01:39:16.581Z,11.60
2018-08-12T01:41:44.792Z,11.60
2018-08-12T01:44:13.026Z,11.60
2018-08-12T01:46:41.266Z,11.60
2018-08-12T01:49:09.641Z,11.60
2018-08-12T01:51:37.845Z,11.60
2018-08-12T01:54:06.143Z,11.70
2018-08-12T01:56:34.368Z,11.70
2018-08-12T01:59:02.606Z,11.70
2018-08-12T02:01:30.848Z,11.60
2018-08-12T02:03:59.076Z,11.60
2018-08-12T02:06:27.322Z,11.60
2018-08-12T02:08:55.564Z,11.60
2018-08-12T02:11:23.794Z,11.60
2018-08-12T02:13:52.035Z,11.60
2018-08-12T02:16:20.240Z,11.60
2018-08-12T02:18:48.684Z,11.60
2018-08-12T02:21:16.883Z,11.70
2018-08-12T02:23:45.118Z,11.70
2018-08-12T02:26:13.329Z,11.60
2018-08-12T02:28:41.568Z,11.60
2018-08-12T02:31:09.806Z,11.60
2018-08-12T02:33:38.041Z,11.60
2018-08-12T02:36:06.259Z,11.60
2018-08-12T02:38:34.652Z,11.60
2018-08-12T02:41:03.022Z,11.60
2018-08-12T02:43:31.272Z,11.50
2018-08-12T02:45:59.485Z,11.50
2018-08-12T02:48:27.779Z,11.50
2018-08-12T02:50:55.982Z,11.50
2018-08-12T02:53:24.223Z,11.60
2018-08-12T02:55:52.622Z,11.50
2018-08-12T02:58:21.279Z,11.50
2018-08-12T03:00:49.598Z,11.50
2018-08-12T03:03:17.865Z,11.50
2018-08-12T03:05:46.085Z,11.50
2018-08-12T03:08:14.320Z,11.50
2018-08-12T03:10:42.609Z,11.50
2018-08-12T03:13:10.803Z,11.60
2018-08-12T03:15:39.081Z,11.50
2018-08-12T03:18:07.307Z,11.50
2018-08-12T03:20:35.562Z,11.50
2018-08-12T03:23:03.796Z,11.50
2018-08-12T03:25:32.035Z,11.50
2018-08-12T03:28:00.279Z,11.60
2018-08-12T03:30:28.501Z,11.60
2018-08-12T03:32:56.719Z,11.60
2018-08-12T03:35:24.952Z,11.50
2018-08-12T03:37:53.150Z,11.60
2018-08-12T03:40:21.386Z,11.60
2018-08-12T03:42:49.726Z,11.60
2018-08-12T03:45:17.964Z,11.60
2018-08-12T03:47:46.185Z,11.60
2018-08-12T03:50:14.410Z,11.60
2018-08-12T03:52:42.683Z,11.70
2018-08-12T03:55:10.900Z,11.70
2018-08-12T03:57:39.142Z,11.70
2018-08-12T04:00:12.046Z,11.70
2018-08-12T04:02:40.273Z,11.70
2018-08-12T04:05:08.494Z,11.70
2018-08-12T04:07:36.776Z,11.70
2018-08-12T04:10:05.556Z,11.60
2018-08-12T04:12:33.756Z,11.60
2018-08-12T04:15:01.995Z,11.60
2018-08-12T04:17:30.216Z,11.60
2018-08-12T04:19:58.422Z,11.60
2018-08-12T04:22:26.633Z,11.60
2018-08-12T04:24:54.904Z,11.70
2018-08-12T04:27:23.202Z,11.80
2018-08-12T04:29:51.429Z,11.80
2018-08-12T04:32:19.656Z,11.80
2018-08-12T04:34:47.866Z,11.80
2018-08-12T04:37:16.103Z,11.80
2018-08-12T04:39:44.339Z,11.80
2018-08-12T04:42:12.556Z,11.90
2018-08-12T04:44:40.787Z,11.90
2018-08-12T04:47:09.023Z,12.00
2018-08-12T04:49:37.239Z,12.00
2018-08-12T04:52:05.461Z,12.00
2018-08-12T04:54:33.674Z,12.10
2018-08-12T04:57:01.908Z,12.20
2018-08-12T04:59:30.125Z,12.20
2018-08-12T05:01:58.350Z,12.20
2018-08-12T05:04:26.554Z,12.30
2018-08-12T05:06:54.802Z,12.30
2018-08-12T05:09:23.021Z,12.40
2018-08-12T05:11:51.234Z,12.50
2018-08-12T05:14:19.453Z,12.50
2018-08-12T05:16:47.684Z,12.60
2018-08-12T05:19:15.875Z,12.60
2018-08-12T05:21:44.108Z,12.80
2018-08-12T05:24:12.328Z,12.80
2018-08-12T05:26:40.546Z,12.90
2018-08-12T05:29:08.758Z,13.00
2018-08-12T05:31:36.970Z,13.10
2018-08-12T05:34:05.243Z,13.10
2018-08-12T05:36:33.519Z,13.20
2018-08-12T05:39:01.718Z,13.30
2018-08-12T05:41:29.980Z,13.30
2018-08-12T05:43:58.206Z,13.40
2018-08-12T05:46:27.160Z,13.50
2018-08-12T05:48:55.379Z,13.60
2018-08-12T05:51:23.615Z,13.70
2018-08-12T05:53:51.842Z,13.80
2018-08-12T05:56:20.136Z,14.00
2018-08-12T05:58:48.381Z,14.00
2018-08-12T06:01:16.605Z,14.10
2018-08-12T06:03:44.822Z,14.20
2018-08-12T06:06:13.086Z,14.30
2018-08-12T06:08:41.320Z,14.40
2018-08-12T06:11:09.578Z,14.60
2018-08-12T06:13:37.812Z,14.70
2018-08-12T06:16:06.060Z,14.90
2018-08-12T06:18:34.286Z,15.00
2018-08-12T06:21:02.529Z,15.10
2018-08-12T06:23:30.792Z,15.20
2018-08-12T06:25:59.019Z,15.40
2018-08-12T06:28:27.243Z,15.50
2018-08-12T06:30:55.459Z,15.70
2018-08-12T06:33:23.689Z,15.80
2018-08-12T06:35:51.929Z,15.90
2018-08-12T06:38:20.146Z,16.10
2018-08-12T06:40:48.386Z,16.20
2018-08-12T06:43:16.599Z,16.40
2018-08-12T06:45:44.819Z,16.60
2018-08-12T06:48:13.108Z,16.80
2018-08-12T06:50:41.320Z,16.90
2018-08-12T06:53:09.605Z,17.10
2018-08-12T06:55:37.817Z,17.30
2018-08-12T06:58:07.214Z,17.40
2018-08-12T07:00:35.478Z,17.60
2018-08-12T07:03:03.684Z,17.70
2018-08-12T07:05:31.912Z,17.90
2018-08-12T07:08:00.181Z,18.00
2018-08-12T07:10:28.393Z,18.30
2018-08-12T07:12:56.616Z,18.50
2018-08-12T07:15:24.858Z,18.60
2018-08-12T07:17:53.078Z,18.80
2018-08-12T07:20:21.288Z,19.00
2018-08-12T07:22:49.502Z,20.00
2018-08-12T07:25:17.753Z,22.20
2018-08-12T07:27:46.046Z,26.10
2018-08-12T07:30:15.441Z,29.20
2018-08-12T07:32:43.787Z,31.40
2018-08-12T07:35:12.412Z,33.20
2018-08-12T07:37:41.130Z,34.40
2018-08-12T07:40:12.829Z,35.40
2018-08-12T07:42:43.080Z,36.30
2018-08-12T07:45:12.536Z,36.30
2018-08-12T07:47:41.253Z,36.20
2018-08-12T07:50:10.128Z,36.50
2018-08-12T07:52:38.640Z,37.50
2018-08-12T07:55:07.653Z,37.10
2018-08-12T07:57:35.891Z,37.00
2018-08-12T08:00:04.931Z,36.80
2018-08-12T08:02:33.203Z,37.00
2018-08-12T08:05:01.460Z,37.10
2018-08-12T08:07:29.756Z,37.20
2018-08-12T08:09:58.831Z,37.20
2018-08-12T08:12:27.164Z,37.40
2018-08-12T08:14:55.405Z,38.10
2018-08-12T08:17:23.789Z,38.70
2018-08-12T08:19:52.063Z,38.60
2018-08-12T08:22:20.361Z,38.50
2018-08-12T08:24:48.620Z,38.60
2018-08-12T08:27:16.884Z,38.60
2018-08-12T08:29:45.119Z,38.00
2018-08-12T08:32:13.651Z,38.30
2018-08-12T08:34:41.740Z,38.60
2018-08-12T08:37:09.986Z,37.80
2018-08-12T08:39:38.241Z,37.70
2018-08-12T08:42:06.597Z,38.40
2018-08-12T08:44:34.837Z,38.30
2018-08-12T08:47:03.220Z,38.30
2018-08-12T08:49:31.476Z,38.40
2018-08-12T08:51:59.712Z,38.80
2018-08-12T08:54:27.982Z,38.30
2018-08-12T08:56:56.203Z,38.40
2018-08-12T08:59:24.467Z,38.80
2018-08-12T09:01:52.698Z,39.10
2018-08-12T09:04:20.952Z,39.20
2018-08-12T09:06:49.379Z,39.40
2018-08-12T09:09:17.790Z,39.20
2018-08-12T09:11:45.979Z,38.50
2018-08-12T09:14:14.219Z,38.10
2018-08-12T09:16:42.441Z,37.30
2018-08-12T09:19:11.446Z,37.00
2018-08-12T09:21:39.681Z,36.80
2018-08-12T09:24:07.981Z,37.20
2018-08-12T09:26:36.258Z,37.20
2018-08-12T09:29:04.682Z,37.50
2018-08-12T09:31:32.878Z,37.60
2018-08-12T09:34:01.479Z,38.00
2018-08-12T09:36:29.734Z,37.40
2018-08-12T09:38:57.987Z,37.60
2018-08-12T09:41:26.233Z,37.60
2018-08-12T09:43:54.622Z,37.20
2018-08-12T09:46:23.193Z,36.20
2018-08-12T09:48:51.531Z,35.80
2018-08-12T09:51:19.783Z,35.40
2018-08-12T09:53:48.040Z,35.20
2018-08-12T09:56:16.241Z,34.80
2018-08-12T09:58:44.527Z,34.60
2018-08-12T10:01:12.731Z,34.00
2018-08-12T10:03:40.968Z,34.20
2018-08-12T10:06:09.263Z,34.40
2018-08-12T10:08:37.550Z,34.10
2018-08-12T10:11:05.747Z,34.00
2018-08-12T10:13:34.001Z,34.40
2018-08-12T10:16:02.206Z,34.30
2018-08-12T10:18:30.430Z,33.80
2018-08-12T10:20:58.672Z,32.40
2018-08-12T10:23:26.898Z,30.60
2018-08-12T10:25:55.144Z,29.60
2018-08-12T10:28:23.368Z,29.00
2018-08-12T10:30:51.591Z,28.70
2018-08-12T10:33:19.924Z,28.30
2018-08-12T10:35:48.163Z,28.00
2018-08-12T10:38:16.370Z,28.20
2018-08-12T10:40:44.601Z,28.50
2018-08-12T10:43:12.826Z,28.30
2018-08-12T10:45:41.077Z,28.30
2018-08-12T10:48:09.314Z,28.60
2018-08-12T10:50:37.547Z,28.60
2018-08-12T10:53:05.762Z,28.80
2018-08-12T10:55:33.997Z,28.90
2018-08-12T10:58:02.241Z,29.10
2018-08-12T11:00:32.907Z,29.00
2018-08-12T11:03:01.157Z,28.90
2018-08-12T11:05:29.407Z,28.90
2018-08-12T11:07:58.760Z,28.80
2018-08-12T11:10:27.567Z,29.10
2018-08-12T11:12:55.783Z,29.20
2018-08-12T11:15:24.131Z,29.30
2018-08-12T11:17:52.347Z,29.40
2018-08-12T11:20:20.620Z,29.50
2018-08-12T11:22:48.800Z,29.70
2018-08-12T11:25:17.075Z,29.90
2018-08-12T11:27:45.332Z,29.80
2018-08-12T11:30:15.204Z,29.30
2018-08-12T11:32:43.453Z,28.90
2018-08-12T11:35:13.314Z,28.90
2018-08-12T11:37:42.127Z,29.10
2018-08-12T11:40:11.274Z,29.30
2018-08-12T11:42:39.500Z,29.20
2018-08-12T11:45:16.543Z,29.20
2018-08-12T11:47:45.501Z,29.20
2018-08-12T11:50:14.230Z,29.50
2018-08-12T11:52:43.117Z,29.70
2018-08-12T11:55:12.501Z,29.70
2018-08-12T11:57:41.061Z,29.70
2018-08-12T12:00:12.727Z,29.70
2018-08-12T12:02:40.935Z,29.70
2018-08-12T12:05:10.818Z,29.80
2018-08-12T12:07:39.897Z,29.80
2018-08-12T12:10:10.738Z,29.80
2018-08-12T12:12:39.474Z,30.00
2018-08-12T12:15:07.784Z,30.00
2018-08-12T12:17:36.111Z,30.00
2018-08-12T12:20:06.246Z,29.80
2018-08-12T12:22:34.515Z,29.80
2018-08-12T12:25:02.751Z,29.70
2018-08-12T12:27:31.252Z,29.70
2018-08-12T12:29:59.547Z,29.80
2018-08-12T12:32:27.763Z,29.80
2018-08-12T12:34:56.001Z,29.80
2018-08-12T12:37:24.216Z,29.90
2018-08-12T12:39:52.450Z,30.00
2018-08-12T12:42:20.677Z,30.00
2018-08-12T12:44:48.904Z,29.90
2018-08-12T12:47:17.231Z,29.90
2018-08-12T12:49:45.453Z,29.80
2018-08-12T12:52:13.702Z,29.50
2018-08-12T12:54:41.961Z,29.40
2018-08-12T12:57:10.484Z,29.40
2018-08-12T12:59:38.758Z,29.40
2018-08-12T13:02:07.000Z,29.50
2018-08-12T13:04:35.256Z,29.60
2018-08-12T13:07:03.522Z,29.40
2018-08-12T13:09:31.779Z,29.40
2018-08-12T13:12:00.020Z,29.40
2018-08-12T13:14:28.275Z,29.40
2018-08-12T13:16:56.520Z,29.40
2018-08-12T13:19:24.749Z,29.40
2018-08-12T13:21:52.985Z,29.40
2018-08-12T13:24:21.216Z,29.40
2018-08-12T13:26:49.451Z,29.30
2018-08-12T13:29:17.654Z,29.30
2018-08-12T13:31:45.893Z,29.30
2018-08-12T13:34:14.527Z,29.20
2018-08-12T13:36:42.795Z,29.20
2018-08-12T13:39:12.487Z,29.10
2018-08-12T13:41:40.716Z,29.10
2018-08-12T13:44:08.973Z,29.20
2018-08-12T13:46:37.215Z,29.30
2018-08-12T13:49:05.509Z,29.20
2018-08-12T13:51:33.780Z,29.10
2018-08-12T13:54:02.005Z,29.10
2018-08-12T13:56:30.281Z,29.00
2018-08-12T13:58:58.507Z,28.90
2018-08-12T14:01:26.719Z,28.80
2018-08-12T14:03:54.960Z,28.70
2018-08-12T14:06:23.213Z,28.70
2018-08-12T14:11:25.955Z,28.70
2018-08-12T14:13:54.208Z,28.70
2018-08-12T14:16:22.409Z,28.70
2018-08-12T14:18:50.627Z,28.80
2018-08-12T14:21:18.879Z,28.80
2018-08-12T14:23:47.086Z,28.80
2018-08-12T14:26:15.299Z,28.90
2018-08-12T14:28:43.518Z,28.80
2018-08-12T14:31:11.756Z,28.80
2018-08-12T14:33:39.976Z,28.80
2018-08-12T14:36:08.233Z,28.80
2018-08-12T14:38:36.508Z,28.80
2018-08-12T14:41:04.783Z,28.60
2018-08-12T14:43:33.092Z,28.60
2018-08-12T14:46:01.293Z,28.60
2018-08-12T14:48:29.516Z,28.60
2018-08-12T14:50:57.762Z,28.70
2018-08-12T14:53:26.001Z,28.70
2018-08-12T14:55:54.218Z,28.70
2018-08-12T14:58:22.493Z,28.70
2018-08-12T15:00:50.721Z,28.70
2018-08-12T15:03:18.965Z,28.80
2018-08-12T15:05:47.186Z,28.80
2018-08-12T15:08:15.417Z,28.80
2018-08-12T15:10:43.639Z,28.80
2018-08-12T15:13:11.892Z,28.70
2018-08-12T15:15:40.128Z,28.70
2018-08-12T15:18:08.406Z,28.60
2018-08-12T15:20:36.644Z,28.60
2018-08-12T15:23:04.893Z,28.60
2018-08-12T15:25:33.112Z,28.60
2018-08-12T15:28:01.348Z,28.60
2018-08-12T15:30:29.582Z,28.60
2018-08-12T15:32:57.820Z,28.60
2018-08-12T15:35:26.030Z,28.60
2018-08-12T15:37:54.296Z,28.50
2018-08-12T15:40:22.512Z,28.60
2018-08-12T15:42:50.756Z,28.60
2018-08-12T15:45:19.123Z,28.60
2018-08-12T15:47:47.872Z,28.60
2018-08-12T15:50:16.126Z,28.60
2018-08-12T15:52:45.366Z,28.60
2018-08-12T15:55:13.767Z,28.70
2018-08-12T15:57:42.033Z,28.60
2018-08-12T16:00:14.230Z,28.60
2018-08-12T16:02:42.963Z,28.40
2018-08-12T16:05:11.186Z,28.30
2018-08-12T16:07:39.444Z,28.10
2018-08-12T16:10:11.343Z,27.90
2018-08-12T16:12:39.572Z,27.70
2018-08-12T16:15:09.511Z,27.70
2018-08-12T16:17:38.216Z,27.60
2018-08-12T16:20:06.948Z,27.60
2018-08-12T16:22:35.225Z,27.60
2018-08-12T16:25:03.464Z,27.60
2018-08-12T16:27:31.670Z,27.60
2018-08-12T16:29:59.915Z,27.60
2018-08-12T16:32:28.129Z,27.60
2018-08-12T16:34:56.395Z,27.50
2018-08-12T16:37:24.741Z,27.40
2018-08-12T16:39:52.947Z,27.30
2018-08-12T16:42:21.199Z,27.20
2018-08-12T16:44:49.407Z,27.10
2018-08-12T16:47:17.633Z,27.00
2018-08-12T16:49:45.923Z,26.80
2018-08-12T16:52:14.108Z,26.70
2018-08-12T16:54:42.375Z,26.60
2018-08-12T16:57:10.569Z,26.40
2018-08-12T16:59:39.224Z,26.40
2018-08-12T17:02:07.506Z,26.20
2018-08-12T17:04:35.737Z,26.10
2018-08-12T17:07:04.021Z,26.00
2018-08-12T17:09:32.248Z,26.00
2018-08-12T17:12:00.461Z,25.90
2018-08-12T17:14:28.700Z,25.90
2018-08-12T17:16:56.908Z,25.80
2018-08-12T17:19:25.143Z,25.60
2018-08-12T17:21:53.409Z,25.50
2018-08-12T17:24:21.720Z,25.40
2018-08-12T17:26:49.932Z,25.30
2018-08-12T17:29:18.167Z,25.20
2018-08-12T17:31:46.412Z,25.10
2018-08-12T17:34:14.634Z,25.00
2018-08-12T17:36:42.858Z,24.90
2018-08-12T17:39:11.596Z,24.70
2018-08-12T17:41:39.924Z,24.60
2018-08-12T17:44:08.159Z,24.60
2018-08-12T17:46:36.373Z,24.40
2018-08-12T17:49:04.621Z,24.30
2018-08-12T17:51:32.896Z,24.20
2018-08-12T17:54:01.326Z,24.10
2018-08-12T17:56:30.047Z,23.90
2018-08-12T17:58:58.649Z,23.70
2018-08-12T18:01:30.664Z,23.50
2018-08-12T18:03:58.889Z,23.20
2018-08-12T18:06:27.349Z,23.00
2018-08-12T18:08:55.579Z,22.70
2018-08-12T18:11:23.889Z,22.40
2018-08-12T18:13:52.118Z,22.20
2018-08-12T18:16:20.320Z,22.00
2018-08-12T18:18:48.561Z,21.90
2018-08-12T18:21:16.794Z,21.70
2018-08-12T18:23:45.023Z,21.60
2018-08-12T18:26:13.519Z,21.40
2018-08-12T18:28:41.739Z,21.30
2018-08-12T18:31:09.959Z,21.20
2018-08-12T18:33:39.496Z,21.00
2018-08-12T18:36:07.821Z,20.90
2018-08-12T18:38:36.051Z,20.70
2018-08-12T18:41:04.292Z,20.60
2018-08-12T18:43:32.536Z,20.50
2018-08-12T18:46:00.760Z,20.40
2018-08-12T18:48:28.978Z,20.30
2018-08-12T18:50:57.252Z,20.30
2018-08-12T18:53:25.505Z,20.30
2018-08-12T18:55:53.748Z,20.20
2018-08-12T18:58:22.038Z,20.10
2018-08-12T19:00:50.328Z,20.00
2018-08-12T19:03:18.579Z,20.00
2018-08-12T19:05:46.791Z,19.80
2018-08-12T19:08:15.067Z,19.70
2018-08-12T19:10:43.272Z,19.60
2018-08-12T19:13:11.500Z,19.50
2018-08-12T19:15:39.727Z,19.40
2018-08-12T19:18:07.942Z,19.30
2018-08-12T19:20:36.192Z,19.30
2018-08-12T19:23:04.885Z,19.20
2018-08-12T19:25:43.881Z,19.10
2018-08-12T19:28:18.340Z,19.00
2018-08-12T19:33:58.523Z,18.90
2018-08-12T19:36:26.757Z,18.70
2018-08-12T19:38:54.966Z,18.60
2018-08-12T19:41:23.246Z,18.50
2018-08-12T19:43:51.472Z,18.30
2018-08-12T19:46:19.727Z,18.20
2018-08-12T19:48:48.025Z,18.10
2018-08-12T19:51:16.264Z,18.00
2018-08-12T19:53:44.540Z,17.90
2018-08-12T19:56:12.758Z,17.90
2018-08-12T19:58:40.992Z,17.80
2018-08-12T20:01:09.228Z,17.70
2018-08-12T20:03:37.499Z,17.60
2018-08-12T20:06:06.005Z,17.50
2018-08-12T20:08:34.250Z,17.40
2018-08-12T20:11:02.481Z,17.40
2018-08-12T20:13:30.708Z,17.30
2018-08-12T20:15:59.026Z,17.20
2018-08-12T20:18:27.343Z,17.10
2018-08-12T20:20:55.533Z,17.10
2018-08-12T20:23:23.838Z,17.00
2018-08-12T20:25:52.059Z,17.00
2018-08-12T20:28:20.327Z,16.90
2018-08-12T20:30:48.556Z,16.80
2018-08-12T20:33:16.773Z,16.80
2018-08-12T20:35:46.125Z,16.70
2018-08-12T20:38:14.349Z,16.70
2018-08-12T20:40:42.566Z,16.60
2018-08-12T20:43:10.776Z,16.60
2018-08-12T20:45:39.008Z,16.50
2018-08-12T20:48:07.322Z,16.40
2018-08-12T20:50:35.545Z,16.40
2018-08-12T20:53:03.782Z,16.30
2018-08-12T20:55:32.134Z,16.20
2018-08-12T20:58:00.480Z,16.10
2018-08-12T21:00:28.742Z,16.10
2018-08-12T21:02:56.993Z,16.20
2018-08-12T21:05:25.285Z,16.10
2018-08-12T21:07:53.509Z,16.10
2018-08-12T21:10:21.760Z,16.00
2018-08-12T21:12:49.956Z,16.00
2018-08-12T21:15:18.202Z,15.90
2018-08-12T21:17:46.448Z,15.90
2018-08-12T21:20:14.693Z,15.80
2018-08-12T21:22:42.904Z,15.80
2018-08-12T21:25:11.123Z,15.80
2018-08-12T21:27:39.393Z,15.80
2018-08-12T21:30:07.667Z,15.80
2018-08-12T21:32:35.909Z,15.80
2018-08-12T21:35:04.591Z,15.70
2018-08-12T21:37:32.844Z,15.70
2018-08-12T21:40:01.146Z,15.70
2018-08-12T21:42:29.384Z,15.70
2018-08-12T21:44:57.599Z,15.70
2018-08-12T21:47:25.802Z,15.60
2018-08-12T21:49:54.016Z,15.50
2018-08-12T21:52:22.264Z,15.40
2018-08-12T21:54:50.476Z,15.40
2018-08-12T21:57:18.716Z,15.40
2018-08-12T21:59:46.941Z,15.30
2018-08-12T22:02:15.158Z,15.20
2018-08-12T22:04:43.368Z,15.20
2018-08-12T22:07:11.641Z,15.20
2018-08-12T22:09:39.852Z,15.20
2018-08-12T22:12:08.066Z,15.10
2018-08-12T22:14:36.301Z,15.00
2018-08-12T22:17:04.728Z,15.00
2018-08-12T22:19:32.923Z,14.90
2018-08-12T22:22:01.155Z,14.90
2018-08-12T22:24:29.350Z,14.90
2018-08-12T22:26:57.591Z,14.90
2018-08-12T22:29:25.804Z,14.80
2018-08-12T22:31:54.077Z,14.80
2018-08-12T22:34:22.267Z,14.70
2018-08-12T22:36:50.544Z,14.70
2018-08-12T22:39:18.742Z,14.60
2018-08-12T22:41:46.974Z,14.60
2018-08-12T22:44:15.204Z,14.50
2018-08-12T22:46:43.500Z,14.50
2018-08-12T22:49:11.748Z,14.40
2018-08-12T22:51:39.972Z,14.40
2018-08-12T22:54:08.211Z,14.30
2018-08-12T22:56:36.464Z,14.30
2018-08-12T22:59:04.706Z,14.30
2018-08-12T23:01:32.948Z,14.20
2018-08-12T23:04:01.151Z,14.10
2018-08-12T23:06:29.366Z,14.10
2018-08-12T23:08:57.570Z,14.10
2018-08-12T23:11:25.867Z,14.10
2018-08-12T23:13:54.088Z,14.10
2018-08-12T23:16:33.670Z,14.00
2018-08-12T23:19:01.873Z,14.00
2018-08-12T23:21:30.323Z,14.00
2018-08-12T23:23:58.540Z,14.00
2018-08-12T23:26:26.768Z,14.00
2018-08-12T23:28:54.982Z,14.00
2018-08-12T23:31:23.183Z,14.00
2018-08-12T23:33:51.398Z,13.90
2018-08-12T23:36:19.610Z,13.90
2018-08-12T23:38:47.831Z,13.90
2018-08-12T23:41:16.039Z,13.80
2018-08-12T23:43:44.286Z,13.80
2018-08-12T23:46:12.492Z,13.70
2018-08-12T23:48:40.714Z,13.70
2018-08-12T23:51:08.915Z,13.70
2018-08-12T23:53:37.150Z,13.60
2018-08-12T23:56:05.437Z,13.60
2018-08-12T23:58:33.674Z,13.60
